Belgium, WI (53004)

08:07 AM CDT am 01. November 2014 (GMT -0500)
Silver Beach | Change Station
CLOSE
Current Station
Persönliche Wetterstationen
Location: Belgium, WI
Höhe: 614 ft
Wetterstationen in der Umgebung

Höhe 614 ft 43.51 °N, 87.79 °W | Updated 10 minutes ago

Bedeckt
Bedeckt
33.6 °F
gefühlte 30 °F
N
4.2
Wind Wechselnd Wind aus Nord-Nordwest

Heute
Max. -- | schwach -- °F
--% Regenrisiko
Gestern
Max. -- | schwach -- °F
Precip. -- inch
7:26 AM 5:42 PM
Zweites Viertel, 66% visible
Druck 30.45 inch
Sichtweite 10.0 Meilen
Wolken Bedeckt 3100 ft
Windchill 30 °F
Taupunkt 28 °F
Feuchtigkeit 79%
Regen 0.00 inch
Schneehöhe Nicht verfügbar..
UV 0 von 12
Pollen .10 von 12
Luftqualität Nicht verfügbar..
Flu Activity Nicht verfügbar..
METAR KETB 011235Z AUTO 34007KT 10SM OVC031 00/M06 A3045 RMK AO2

More Conditions Fewer Conditions

Druck 30.45 inch
Sichtweite 10.0 Meilen
Wolken Bedeckt 3100 ft
Windchill 30 °F
Taupunkt 28 °F
Feuchtigkeit 79%
Regen 0.00 inch
Schneehöhe Nicht verfügbar..
UV 0 von 12
Pollen .10 von 12
Luftqualität Nicht verfügbar..
Flu Activity Nicht verfügbar..
METAR KETB 011235Z AUTO 34007KT 10SM OVC031 00/M06 A3045 RMK AO2

More Conditions Fewer Conditions

10-Day Weather Forecast

Almanac

Astronomie

Nov. 01, 2014 Aufgang Untergang
Genaue Zeit
Bürgerliche Dämmerung
Nautische Dämmerung
Astronomische Dämmerung
Mond
Länge des sichtbaren Lichts
Tageslänge
Tomorrow will be .
, % of the Moon is Illuminated

Heutige Rekorde

State Highs State Lows

Community

WunderPhotos

Upload Photos

1,766,918 Fotos hochgeladen!

WunderBlogs® & News

Nearby

Luftqualität

  Luftqualität LQ Index Schadstoff
Not available.

Schneehöhe

Station Depth Höhe

Erdbebenaktivität

Stadt Distance Mag. Time & Date
Minimum magnitude displayed is 2.5.

küstennahe Wassertemperaturen

Ort Temperatur

Wetterstationen in der Umgebung